Algosea — CFN4229 — position and weather

sailwx.info

Track history (hours):
 
Tides and Currents Weather Stations Pressure Air Temp Water Temp Dewpoint Dewpoint Depression Visibility Wind Speed Wind Dir Waves Ship Positions

Algosea

Last reported at 2014-Oct-01 15:33 UTC. Time now 2014-Oct-02 06:39 UTC.
Position N 43°59' W 076°34'.

Length 144 m; draft 6.6 m.

Type: Ship. MMSI: 316006868.

Date/timePositionNaut miles runAvg speedWind from/ knotsBaromVisibWave heightAir tempDewpointWater temp
2014-Oct-01 15:33N 43°59' W 076°34'1212.2
2014-Oct-01 14:33N 44°08' W 076°22'1010.3
2014-Oct-01 13:33N 44°13' W 076°10'86 7.6
2014-Oct-01 02:16N 45°04' W 074°32'6 8.9
2014-Oct-01 01:34N 45°08' W 074°25'1010.4
2014-Oct-01 00:33N 45°14' W 074°13'9 9.0
2014-Sep-30 23:33N 45°14' W 074°00'6 5.7
2014-Sep-30 22:33N 45°18' W 073°56'2 1.5
2014-Sep-30 21:33N 45°20' W 073°55'1 1.1
2014-Sep-30 20:34N 45°20' W 073°54'4 3.9
2014-Sep-30 19:33N 45°23' W 073°49'7 6.5
2014-Sep-30 18:33N 45°25' W 073°40'5 4.6
2014-Sep-30 17:33N 45°24' W 073°34'3 3.0
2014-Sep-30 16:33N 45°26' W 073°30'4 3.9
2014-Sep-30 15:33N 45°30' W 073°31'2 2.3
2014-Sep-30 14:33N 45°32' W 073°32'4 4.3
2014-Sep-30 13:33N 45°36' W 073°30'1 0.6
2014-Sep-30 12:33N 45°37' W 073°30'0 0.0
2014-Sep-30 11:33N 45°37' W 073°30'0 0.0
2014-Sep-30 10:33N 45°37' W 073°30'0 0.0
2014-Sep-30 09:33N 45°37' W 073°30'0 0.0
2014-Sep-30 08:33N 45°37' W 073°30'0 0.0
2014-Sep-30 07:30N 45°37' W 073°30'0 0.0
2014-Sep-30 06:33N 45°37' W 073°30'0 0.0
2014-Sep-30 05:33N 45°37' W 073°30'0 0.0
2014-Sep-30 04:33N 45°37' W 073°30'0 0.0
2014-Sep-30 03:33N 45°37' W 073°30'0 0.0
2014-Sep-30 02:33N 45°37' W 073°30'0 0.0
2014-Sep-30 01:33N 45°37' W 073°30'0 0.0
2014-Sep-30 00:33N 45°37' W 073°30'0 0.0
2014-Sep-29 23:33N 45°37' W 073°30'0 0.0
2014-Sep-29 22:33N 45°37' W 073°30'0 0.0
2014-Sep-29 21:33N 45°37' W 073°30'0 0.0
2014-Sep-29 20:33N 45°37' W 073°30'0 0.0
2014-Sep-29 19:33N 45°37' W 073°30'0 0.0
2014-Sep-29 18:33N 45°37' W 073°30'0 0.0
2014-Sep-29 17:33N 45°37' W 073°30'1 0.7
2014-Sep-29 16:33N 45°37' W 073°30'1 0.8
2014-Sep-29 15:32N 45°38' W 073°29'0 0.0
2014-Sep-29 14:32N 45°38' W 073°29'0 0.0
2014-Sep-29 13:32N 45°38' W 073°29'0 0.0
2014-Sep-29 12:32N 45°38' W 073°29'0 0.0
2014-Sep-29 11:32N 45°38' W 073°29'0 0.0
2014-Sep-29 10:32N 45°38' W 073°29'4 4.1
2014-Sep-29 09:33N 45°34' W 073°31'5 4.6
2014-Sep-29 08:33N 45°30' W 073°31'2 2.2
2014-Sep-29 07:33N 45°27' W 073°30'4 3.9
2014-Sep-29 06:34N 45°24' W 073°34'1 1.2
2014-Sep-29 05:34N 45°24' W 073°36'3 3.0
2014-Sep-29 04:33N 45°25' W 073°40'5 4.7
2014-Sep-29 03:34N 45°24' W 073°46'8 8.1
2014-Sep-29 02:34N 45°19' W 073°55'1 0.9
2014-Sep-29 01:33N 45°18' W 073°56'5 5.2
2014-Sep-29 00:33N 45°14' W 073°60'1110.8
2014-Sep-28 23:33N 45°13' W 074°15'1212.2
2014-Sep-28 22:34N 45°06' W 074°29'84 8.1
2014-Sep-28 12:13N 44°16' W 076°03'811.3
2014-Sep-28 11:31N 44°12' W 076°13'1010.4
2014-Sep-28 10:33N 44°06' W 076°24'1212.1
2014-Sep-28 09:33N 43°56' W 076°33'1511.8
2014-Sep-28 08:16N 43°49' W 076°52'912.1
2014-Sep-28 07:29N 43°45' W 077°04'111 5.0
2014-Sep-27 09:08N 42°50' W 079°16'5 9.3
2014-Sep-27 08:33N 42°48' W 079°23'1111.3
2014-Sep-27 07:33N 42°46' W 079°38'1111.4
2014-Sep-27 06:33N 42°44' W 079°53'9 9.2
2014-Sep-27 05:33N 42°45' W 080°06'4 0.2
2014-Sep-26 13:18N 42°48' W 080°03'0 0.0
2014-Sep-26 09:17N 42°48' W 080°03'0 0.0
2014-Sep-26 08:28N 42°48' W 080°03'0 0.0
2014-Sep-26 07:27N 42°48' W 080°03'0 0.0
2014-Sep-26 06:31N 42°48' W 080°03'0 0.0
2014-Sep-26 05:12N 42°48' W 080°03'0 0.0
2014-Sep-26 00:33N 42°48' W 080°03'0 0.0
2014-Sep-25 23:33N 42°48' W 080°03'0 0.0
2014-Sep-25 22:28N 42°48' W 080°03'0 0.0
2014-Sep-25 21:28N 42°48' W 080°03'0 0.0
2014-Sep-25 20:31N 42°48' W 080°03'0 0.0
2014-Sep-25 19:31N 42°48' W 080°03'0 0.0
2014-Sep-25 18:31N 42°48' W 080°03'0 0.3
2014-Sep-25 17:33N 42°48' W 080°03'3 3.1
2014-Sep-25 16:33N 42°45' W 080°05'4 4.3
2014-Sep-25 15:30N 42°44' W 080°11'0 0.1
2014-Sep-25 14:30N 42°44' W 080°11'0 0.1
2014-Sep-25 13:33N 42°44' W 080°11'0 0.1
2014-Sep-25 12:30N 42°44' W 080°11'0 0.0
2014-Sep-25 11:24N 42°44' W 080°11'0 0.0
2014-Sep-25 10:30N 42°44' W 080°11'0 0.0
2014-Sep-25 09:30N 42°44' W 080°11'0 0.0
2014-Sep-25 08:30N 42°44' W 080°11'0 0.2
2014-Sep-25 07:30N 42°44' W 080°11'3 3.4
2014-Sep-25 06:33N 42°42' W 080°08'1212.0
2014-Sep-25 05:33N 42°31' W 080°00'1211.9
2014-Sep-25 04:31N 42°23' W 080°12'  
Track history (hours):
 
Tides and Currents Weather Stations Pressure Air Temp Water Temp Dewpoint Dewpoint Depression Visibility Wind Speed Wind Dir Waves Ship Positions

Algosea

Last reported at 2014-Oct-01 15:33 UTC. Time now 2014-Oct-02 06:39 UTC.
Position N 43°59' W 076°34'.

Length 144 m; draft 6.6 m.

Type: Ship. MMSI: 316006868.

Date/timePositionNaut miles runAvg speedWind from/ knotsBaromVisibWave heightAir tempDewpointWater temp
2014-Oct-01 15:33N 43°59' W 076°34'1212.2
2014-Oct-01 14:33N 44°08' W 076°22'1010.3
2014-Oct-01 13:33N 44°13' W 076°10'86 7.6
2014-Oct-01 02:16N 45°04' W 074°32'6 8.9
2014-Oct-01 01:34N 45°08' W 074°25'1010.4
2014-Oct-01 00:33N 45°14' W 074°13'9 9.0
2014-Sep-30 23:33N 45°14' W 074°00'6 5.7
2014-Sep-30 22:33N 45°18' W 073°56'2 1.5
2014-Sep-30 21:33N 45°20' W 073°55'1 1.1
2014-Sep-30 20:34N 45°20' W 073°54'4 3.9
2014-Sep-30 19:33N 45°23' W 073°49'7 6.5
2014-Sep-30 18:33N 45°25' W 073°40'5 4.6
2014-Sep-30 17:33N 45°24' W 073°34'3 3.0
2014-Sep-30 16:33N 45°26' W 073°30'4 3.9
2014-Sep-30 15:33N 45°30' W 073°31'2 2.3
2014-Sep-30 14:33N 45°32' W 073°32'4 4.3
2014-Sep-30 13:33N 45°36' W 073°30'1 0.6
2014-Sep-30 12:33N 45°37' W 073°30'0 0.0
2014-Sep-30 11:33N 45°37' W 073°30'0 0.0
2014-Sep-30 10:33N 45°37' W 073°30'0 0.0
2014-Sep-30 09:33N 45°37' W 073°30'0 0.0
2014-Sep-30 08:33N 45°37' W 073°30'0 0.0
2014-Sep-30 07:30N 45°37' W 073°30'0 0.0
2014-Sep-30 06:33N 45°37' W 073°30'0 0.0
2014-Sep-30 05:33N 45°37' W 073°30'0 0.0
2014-Sep-30 04:33N 45°37' W 073°30'0 0.0
2014-Sep-30 03:33N 45°37' W 073°30'0 0.0
2014-Sep-30 02:33N 45°37' W 073°30'0 0.0
2014-Sep-30 01:33N 45°37' W 073°30'0 0.0
2014-Sep-30 00:33N 45°37' W 073°30'0 0.0
2014-Sep-29 23:33N 45°37' W 073°30'0 0.0
2014-Sep-29 22:33N 45°37' W 073°30'0 0.0
2014-Sep-29 21:33N 45°37' W 073°30'0 0.0
2014-Sep-29 20:33N 45°37' W 073°30'0 0.0
2014-Sep-29 19:33N 45°37' W 073°30'0 0.0
2014-Sep-29 18:33N 45°37' W 073°30'0 0.0
2014-Sep-29 17:33N 45°37' W 073°30'1 0.7
2014-Sep-29 16:33N 45°37' W 073°30'1 0.8
2014-Sep-29 15:32N 45°38' W 073°29'0 0.0
2014-Sep-29 14:32N 45°38' W 073°29'0 0.0
2014-Sep-29 13:32N 45°38' W 073°29'0 0.0
2014-Sep-29 12:32N 45°38' W 073°29'0 0.0
2014-Sep-29 11:32N 45°38' W 073°29'0 0.0
2014-Sep-29 10:32N 45°38' W 073°29'4 4.1
2014-Sep-29 09:33N 45°34' W 073°31'5 4.6
2014-Sep-29 08:33N 45°30' W 073°31'2 2.2
2014-Sep-29 07:33N 45°27' W 073°30'4 3.9
2014-Sep-29 06:34N 45°24' W 073°34'1 1.2
2014-Sep-29 05:34N 45°24' W 073°36'3 3.0
2014-Sep-29 04:33N 45°25' W 073°40'5 4.7
2014-Sep-29 03:34N 45°24' W 073°46'8 8.1
2014-Sep-29 02:34N 45°19' W 073°55'1 0.9
2014-Sep-29 01:33N 45°18' W 073°56'5 5.2
2014-Sep-29 00:33N 45°14' W 073°60'1110.8
2014-Sep-28 23:33N 45°13' W 074°15'1212.2
2014-Sep-28 22:34N 45°06' W 074°29'84 8.1
2014-Sep-28 12:13N 44°16' W 076°03'811.3
2014-Sep-28 11:31N 44°12' W 076°13'1010.4
2014-Sep-28 10:33N 44°06' W 076°24'1212.1
2014-Sep-28 09:33N 43°56' W 076°33'1511.8
2014-Sep-28 08:16N 43°49' W 076°52'912.1
2014-Sep-28 07:29N 43°45' W 077°04'111 5.0
2014-Sep-27 09:08N 42°50' W 079°16'5 9.3
2014-Sep-27 08:33N 42°48' W 079°23'1111.3
2014-Sep-27 07:33N 42°46' W 079°38'1111.4
2014-Sep-27 06:33N 42°44' W 079°53'9 9.2
2014-Sep-27 05:33N 42°45' W 080°06'4 0.2
2014-Sep-26 13:18N 42°48' W 080°03'0 0.0
2014-Sep-26 09:17N 42°48' W 080°03'0 0.0
2014-Sep-26 08:28N 42°48' W 080°03'0 0.0
2014-Sep-26 07:27N 42°48' W 080°03'0 0.0
2014-Sep-26 06:31N 42°48' W 080°03'0 0.0
2014-Sep-26 05:12N 42°48' W 080°03'0 0.0
2014-Sep-26 00:33N 42°48' W 080°03'0 0.0
2014-Sep-25 23:33N 42°48' W 080°03'0 0.0
2014-Sep-25 22:28N 42°48' W 080°03'0 0.0
2014-Sep-25 21:28N 42°48' W 080°03'0 0.0
2014-Sep-25 20:31N 42°48' W 080°03'0 0.0
2014-Sep-25 19:31N 42°48' W 080°03'0 0.0
2014-Sep-25 18:31N 42°48' W 080°03'0 0.3
2014-Sep-25 17:33N 42°48' W 080°03'3 3.1
2014-Sep-25 16:33N 42°45' W 080°05'4 4.3
2014-Sep-25 15:30N 42°44' W 080°11'0 0.1
2014-Sep-25 14:30N 42°44' W 080°11'0 0.1
2014-Sep-25 13:33N 42°44' W 080°11'0 0.1
2014-Sep-25 12:30N 42°44' W 080°11'0 0.0
2014-Sep-25 11:24N 42°44' W 080°11'0 0.0
2014-Sep-25 10:30N 42°44' W 080°11'0 0.0
2014-Sep-25 09:30N 42°44' W 080°11'0 0.0
2014-Sep-25 08:30N 42°44' W 080°11'0 0.2
2014-Sep-25 07:30N 42°44' W 080°11'3 3.4
2014-Sep-25 06:33N 42°42' W 080°08'1212.0
2014-Sep-25 05:33N 42°31' W 080°00'1211.9
2014-Sep-25 04:31N 42°23' W 080°12'  

Dump ship's entire track history